sensor_id;sensor_type;location;lat;lon;timestamp;temperature;humidity
55560;DHT22;41414;53.250;6.514;2022-12-24T00:01:58;6.50;99.90
55560;DHT22;41414;53.250;6.514;2022-12-24T00:04:23;6.50;99.90
55560;DHT22;41414;53.250;6.514;2022-12-24T00:06:49;6.50;99.90
55560;DHT22;41414;53.250;6.514;2022-12-24T00:09:15;6.50;99.90
55560;DHT22;41414;53.250;6.514;2022-12-24T00:11:41;6.50;99.90
55560;DHT22;41414;53.250;6.514;2022-12-24T00:14:07;6.50;99.90
55560;DHT22;41414;53.250;6.514;2022-12-24T00:16:33;6.50;99.90
55560;DHT22;41414;53.250;6.514;2022-12-24T00:18:59;6.50;99.90
55560;DHT22;41414;53.250;6.514;2022-12-24T00:21:24;6.50;99.90
55560;DHT22;41414;53.250;6.514;2022-12-24T00:23:50;6.50;99.90
55560;DHT22;41414;53.250;6.514;2022-12-24T00:26:16;6.50;99.90
55560;DHT22;41414;53.250;6.514;2022-12-24T00:28:42;6.50;99.90
55560;DHT22;41414;53.250;6.514;2022-12-24T00:31:11;6.50;99.90
55560;DHT22;41414;53.250;6.514;2022-12-24T00:33:37;6.50;99.90
55560;DHT22;41414;53.250;6.514;2022-12-24T00:36:04;6.50;99.90
55560;DHT22;41414;53.250;6.514;2022-12-24T00:38:30;6.50;99.90
55560;DHT22;41414;53.250;6.514;2022-12-24T00:40:59;6.50;99.90
55560;DHT22;41414;53.250;6.514;2022-12-24T00:43:26;6.50;99.90
55560;DHT22;41414;53.250;6.514;2022-12-24T00:45:52;6.50;99.90
55560;DHT22;41414;53.250;6.514;2022-12-24T00:48:18;6.50;99.90
55560;DHT22;41414;53.250;6.514;2022-12-24T00:50:44;6.50;99.90
55560;DHT22;41414;53.250;6.514;2022-12-24T00:53:10;6.50;99.90
55560;DHT22;41414;53.250;6.514;2022-12-24T00:55:36;6.50;99.90
55560;DHT22;41414;53.250;6.514;2022-12-24T00:58:02;6.50;99.90
55560;DHT22;41414;53.250;6.514;2022-12-24T01:00:28;6.50;99.90
55560;DHT22;41414;53.250;6.514;2022-12-24T01:02:53;6.50;99.90
55560;DHT22;41414;53.250;6.514;2022-12-24T01:05:19;6.50;99.90
55560;DHT22;41414;53.250;6.514;2022-12-24T01:07:45;6.50;99.90
55560;DHT22;41414;53.250;6.514;2022-12-24T01:10:14;6.50;99.90
55560;DHT22;41414;53.250;6.514;2022-12-24T01:12:40;6.50;99.90
55560;DHT22;41414;53.250;6.514;2022-12-24T01:15:07;6.50;99.90
55560;DHT22;41414;53.250;6.514;2022-12-24T01:17:34;6.50;99.90
55560;DHT22;41414;53.250;6.514;2022-12-24T01:20:00;6.50;99.90
55560;DHT22;41414;53.250;6.514;2022-12-24T01:22:26;6.50;99.90
55560;DHT22;41414;53.250;6.514;2022-12-24T01:24:52;6.50;99.90
55560;DHT22;41414;53.250;6.514;2022-12-24T01:27:18;6.50;99.90
55560;DHT22;41414;53.250;6.514;2022-12-24T01:29:44;6.50;99.90
55560;DHT22;41414;53.250;6.514;2022-12-24T01:32:10;6.50;99.90
55560;DHT22;41414;53.250;6.514;2022-12-24T01:34:36;6.50;99.90
55560;DHT22;41414;53.250;6.514;2022-12-24T01:37:02;6.30;99.90
55560;DHT22;41414;53.250;6.514;2022-12-24T01:39:27;6.50;99.90
55560;DHT22;41414;53.250;6.514;2022-12-24T01:41:53;6.50;99.90
55560;DHT22;41414;53.250;6.514;2022-12-24T01:44:42;6.50;99.90
55560;DHT22;41414;53.250;6.514;2022-12-24T01:47:14;6.50;99.90
55560;DHT22;41414;53.250;6.514;2022-12-24T01:49:46;6.50;99.90
55560;DHT22;41414;53.250;6.514;2022-12-24T01:52:17;6.60;99.90
55560;DHT22;41414;53.250;6.514;2022-12-24T01:54:49;6.50;99.90
55560;DHT22;41414;53.250;6.514;2022-12-24T01:57:18;6.50;99.90
55560;DHT22;41414;53.250;6.514;2022-12-24T01:59:47;6.50;99.90
55560;DHT22;41414;53.250;6.514;2022-12-24T02:02:15;6.50;99.90
55560;DHT22;41414;53.250;6.514;2022-12-24T02:04:49;6.50;99.90
55560;DHT22;41414;53.250;6.514;2022-12-24T02:07:15;6.50;99.90
55560;DHT22;41414;53.250;6.514;2022-12-24T02:09:41;6.50;99.90
55560;DHT22;41414;53.250;6.514;2022-12-24T02:12:08;6.50;99.90
55560;DHT22;41414;53.250;6.514;2022-12-24T02:14:35;6.50;99.90
55560;DHT22;41414;53.250;6.514;2022-12-24T02:17:14;6.50;99.90
55560;DHT22;41414;53.250;6.514;2022-12-24T02:22:45;6.50;99.90
55560;DHT22;41414;53.250;6.514;2022-12-24T02:25:32;6.50;99.90
55560;DHT22;41414;53.250;6.514;2022-12-24T02:28:22;6.50;99.90
55560;DHT22;41414;53.250;6.514;2022-12-24T02:30:58;6.50;99.90
55560;DHT22;41414;53.250;6.514;2022-12-24T02:33:48;6.40;99.90
55560;DHT22;41414;53.250;6.514;2022-12-24T02:38:50;6.50;99.90
55560;DHT22;41414;53.250;6.514;2022-12-24T02:41:21;6.50;99.90
55560;DHT22;41414;53.250;6.514;2022-12-24T02:43:48;6.50;99.90
55560;DHT22;41414;53.250;6.514;2022-12-24T02:46:18;6.50;99.90
55560;DHT22;41414;53.250;6.514;2022-12-24T02:48:46;6.50;99.90
55560;DHT22;41414;53.250;6.514;2022-12-24T02:51:13;6.50;99.90
55560;DHT22;41414;53.250;6.514;2022-12-24T02:53:39;6.50;99.90
55560;DHT22;41414;53.250;6.514;2022-12-24T02:56:33;6.50;99.90
55560;DHT22;41414;53.250;6.514;2022-12-24T03:02:08;6.50;99.90
55560;DHT22;41414;53.250;6.514;2022-12-24T03:07:34;6.50;99.90
55560;DHT22;41414;53.250;6.514;2022-12-24T03:10:12;6.50;99.90
55560;DHT22;41414;53.250;6.514;2022-12-24T03:12:43;6.50;99.90
55560;DHT22;41414;53.250;6.514;2022-12-24T03:15:13;6.50;99.90
55560;DHT22;41414;53.250;6.514;2022-12-24T03:17:41;6.50;99.90
55560;DHT22;41414;53.250;6.514;2022-12-24T03:20:10;6.50;99.90
55560;DHT22;41414;53.250;6.514;2022-12-24T03:22:38;6.50;99.90
55560;DHT22;41414;53.250;6.514;2022-12-24T03:25:04;6.50;99.90
55560;DHT22;41414;53.250;6.514;2022-12-24T03:27:31;6.60;99.90
55560;DHT22;41414;53.250;6.514;2022-12-24T03:29:58;6.60;99.90
55560;DHT22;41414;53.250;6.514;2022-12-24T03:32:27;6.70;99.90
55560;DHT22;41414;53.250;6.514;2022-12-24T03:34:54;6.70;99.90
55560;DHT22;41414;53.250;6.514;2022-12-24T03:37:20;6.80;99.90
55560;DHT22;41414;53.250;6.514;2022-12-24T03:39:47;6.80;99.90
55560;DHT22;41414;53.250;6.514;2022-12-24T03:42:12;6.90;99.90
55560;DHT22;41414;53.250;6.514;2022-12-24T03:44:39;6.90;99.90
55560;DHT22;41414;53.250;6.514;2022-12-24T03:47:05;6.90;99.90
55560;DHT22;41414;53.250;6.514;2022-12-24T03:49:31;7.00;99.90
55560;DHT22;41414;53.250;6.514;2022-12-24T03:51:57;7.00;99.90
55560;DHT22;41414;53.250;6.514;2022-12-24T03:54:23;7.00;99.90
55560;DHT22;41414;53.250;6.514;2022-12-24T03:56:49;7.10;99.90
55560;DHT22;41414;53.250;6.514;2022-12-24T03:59:15;7.10;99.90
55560;DHT22;41414;53.250;6.514;2022-12-24T04:01:40;7.10;99.90
55560;DHT22;41414;53.250;6.514;2022-12-24T04:04:06;7.20;99.90
55560;DHT22;41414;53.250;6.514;2022-12-24T04:06:32;7.20;99.90
55560;DHT22;41414;53.250;6.514;2022-12-24T04:08:58;7.20;99.90
55560;DHT22;41414;53.250;6.514;2022-12-24T04:11:26;7.30;99.90
55560;DHT22;41414;53.250;6.514;2022-12-24T04:13:52;7.30;99.90
55560;DHT22;41414;53.250;6.514;2022-12-24T04:16:18;7.30;99.90
55560;DHT22;41414;53.250;6.514;2022-12-24T04:18:44;7.40;99.90
55560;DHT22;41414;53.250;6.514;2022-12-24T04:21:10;7.40;99.90
55560;DHT22;41414;53.250;6.514;2022-12-24T04:23:37;7.40;99.90
55560;DHT22;41414;53.250;6.514;2022-12-24T04:26:05;7.40;99.90
55560;DHT22;41414;53.250;6.514;2022-12-24T04:28:32;7.40;99.90
55560;DHT22;41414;53.250;6.514;2022-12-24T04:30:59;7.40;99.90
55560;DHT22;41414;53.250;6.514;2022-12-24T04:33:26;7.40;99.90
55560;DHT22;41414;53.250;6.514;2022-12-24T04:35:52;7.40;99.90
55560;DHT22;41414;53.250;6.514;2022-12-24T04:38:18;7.40;99.90
55560;DHT22;41414;53.250;6.514;2022-12-24T04:40:43;7.40;99.90
55560;DHT22;41414;53.250;6.514;2022-12-24T04:43:09;7.50;99.90
55560;DHT22;41414;53.250;6.514;2022-12-24T04:45:35;7.50;99.90
55560;DHT22;41414;53.250;6.514;2022-12-24T04:48:01;7.60;99.90
55560;DHT22;41414;53.250;6.514;2022-12-24T04:50:27;7.60;99.90
55560;DHT22;41414;53.250;6.514;2022-12-24T04:52:52;7.60;99.90
55560;DHT22;41414;53.250;6.514;2022-12-24T04:55:18;7.60;99.90
55560;DHT22;41414;53.250;6.514;2022-12-24T04:57:44;7.60;99.90
55560;DHT22;41414;53.250;6.514;2022-12-24T05:00:10;7.60;99.90
55560;DHT22;41414;53.250;6.514;2022-12-24T05:02:36;7.50;99.90
55560;DHT22;41414;53.250;6.514;2022-12-24T05:05:02;7.50;99.90
55560;DHT22;41414;53.250;6.514;2022-12-24T05:07:28;7.50;99.90
55560;DHT22;41414;53.250;6.514;2022-12-24T05:09:54;7.50;99.90
55560;DHT22;41414;53.250;6.514;2022-12-24T05:12:20;7.50;99.90
55560;DHT22;41414;53.250;6.514;2022-12-24T05:14:45;7.50;99.90
55560;DHT22;41414;53.250;6.514;2022-12-24T05:17:11;7.60;99.90
55560;DHT22;41414;53.250;6.514;2022-12-24T05:19:37;7.60;99.90
55560;DHT22;41414;53.250;6.514;2022-12-24T05:22:03;7.60;99.90
55560;DHT22;41414;53.250;6.514;2022-12-24T05:24:47;7.70;99.90
55560;DHT22;41414;53.250;6.514;2022-12-24T05:27:31;7.70;99.90
55560;DHT22;41414;53.250;6.514;2022-12-24T05:29:57;7.70;99.90
55560;DHT22;41414;53.250;6.514;2022-12-24T05:32:23;7.70;99.90
55560;DHT22;41414;53.250;6.514;2022-12-24T05:34:49;7.70;99.90
55560;DHT22;41414;53.250;6.514;2022-12-24T05:37:14;7.70;99.90
55560;DHT22;41414;53.250;6.514;2022-12-24T05:39:40;7.80;99.90
55560;DHT22;41414;53.250;6.514;2022-12-24T05:42:06;7.80;99.90
55560;DHT22;41414;53.250;6.514;2022-12-24T05:44:32;7.70;99.90
55560;DHT22;41414;53.250;6.514;2022-12-24T05:46:58;7.80;99.90
55560;DHT22;41414;53.250;6.514;2022-12-24T05:49:24;7.80;99.90
55560;DHT22;41414;53.250;6.514;2022-12-24T05:51:49;7.80;99.90
55560;DHT22;41414;53.250;6.514;2022-12-24T05:54:15;7.80;99.90
55560;DHT22;41414;53.250;6.514;2022-12-24T05:56:41;7.80;99.90
55560;DHT22;41414;53.250;6.514;2022-12-24T05:59:07;7.80;99.90
55560;DHT22;41414;53.250;6.514;2022-12-24T06:01:33;7.90;99.90
55560;DHT22;41414;53.250;6.514;2022-12-24T06:03:58;7.90;99.90
55560;DHT22;41414;53.250;6.514;2022-12-24T06:06:26;7.90;99.90
55560;DHT22;41414;53.250;6.514;2022-12-24T06:08:53;7.90;99.90
55560;DHT22;41414;53.250;6.514;2022-12-24T06:11:22;7.90;99.90
55560;DHT22;41414;53.250;6.514;2022-12-24T06:13:48;8.00;99.90
55560;DHT22;41414;53.250;6.514;2022-12-24T06:16:17;8.00;99.90
55560;DHT22;41414;53.250;6.514;2022-12-24T06:18:43;8.00;99.90
55560;DHT22;41414;53.250;6.514;2022-12-24T06:21:09;8.00;99.90
55560;DHT22;41414;53.250;6.514;2022-12-24T06:23:38;8.00;99.90
55560;DHT22;41414;53.250;6.514;2022-12-24T06:26:05;8.00;99.90
55560;DHT22;41414;53.250;6.514;2022-12-24T06:28:33;8.00;99.90
55560;DHT22;41414;53.250;6.514;2022-12-24T06:31:00;8.00;99.90
55560;DHT22;41414;53.250;6.514;2022-12-24T06:33:26;8.00;99.90
55560;DHT22;41414;53.250;6.514;2022-12-24T06:35:52;8.00;99.90
55560;DHT22;41414;53.250;6.514;2022-12-24T06:38:18;8.00;99.90
55560;DHT22;41414;53.250;6.514;2022-12-24T06:40:45;8.00;99.90
55560;DHT22;41414;53.250;6.514;2022-12-24T06:43:12;8.00;99.90
55560;DHT22;41414;53.250;6.514;2022-12-24T06:45:38;8.00;99.90
55560;DHT22;41414;53.250;6.514;2022-12-24T06:48:05;8.00;99.90
55560;DHT22;41414;53.250;6.514;2022-12-24T06:50:32;8.00;99.90
55560;DHT22;41414;53.250;6.514;2022-12-24T06:52:58;8.10;99.90
55560;DHT22;41414;53.250;6.514;2022-12-24T06:55:24;8.10;99.90
55560;DHT22;41414;53.250;6.514;2022-12-24T06:57:50;8.10;99.90
55560;DHT22;41414;53.250;6.514;2022-12-24T07:00:16;8.20;99.90
55560;DHT22;41414;53.250;6.514;2022-12-24T07:02:43;8.20;99.90
55560;DHT22;41414;53.250;6.514;2022-12-24T07:05:11;8.20;99.90
55560;DHT22;41414;53.250;6.514;2022-12-24T07:07:40;8.10;99.90
55560;DHT22;41414;53.250;6.514;2022-12-24T07:10:07;8.10;99.90
55560;DHT22;41414;53.250;6.514;2022-12-24T07:12:34;8.10;99.90
55560;DHT22;41414;53.250;6.514;2022-12-24T07:15:00;8.10;99.90
55560;DHT22;41414;53.250;6.514;2022-12-24T07:17:26;8.10;99.90
55560;DHT22;41414;53.250;6.514;2022-12-24T07:19:52;8.00;99.90
55560;DHT22;41414;53.250;6.514;2022-12-24T07:22:18;8.00;99.90
55560;DHT22;41414;53.250;6.514;2022-12-24T07:24:43;8.10;99.90
55560;DHT22;41414;53.250;6.514;2022-12-24T07:27:09;8.10;99.90
55560;DHT22;41414;53.250;6.514;2022-12-24T07:29:35;8.10;99.90
55560;DHT22;41414;53.250;6.514;2022-12-24T07:32:01;8.00;99.90
55560;DHT22;41414;53.250;6.514;2022-12-24T07:34:27;8.00;99.90
55560;DHT22;41414;53.250;6.514;2022-12-24T07:36:53;8.00;99.90
55560;DHT22;41414;53.250;6.514;2022-12-24T07:39:18;7.90;99.90
55560;DHT22;41414;53.250;6.514;2022-12-24T07:41:44;7.90;99.90
55560;DHT22;41414;53.250;6.514;2022-12-24T07:44:11;7.80;99.90
55560;DHT22;41414;53.250;6.514;2022-12-24T07:46:38;7.70;99.90
55560;DHT22;41414;53.250;6.514;2022-12-24T07:49:04;7.80;99.90
55560;DHT22;41414;53.250;6.514;2022-12-24T07:51:30;7.70;99.90
55560;DHT22;41414;53.250;6.514;2022-12-24T07:53:56;7.70;99.90
55560;DHT22;41414;53.250;6.514;2022-12-24T07:56:22;7.70;99.90
55560;DHT22;41414;53.250;6.514;2022-12-24T07:58:49;7.80;99.90
55560;DHT22;41414;53.250;6.514;2022-12-24T08:01:16;7.80;99.90
55560;DHT22;41414;53.250;6.514;2022-12-24T08:03:42;7.90;99.90
55560;DHT22;41414;53.250;6.514;2022-12-24T08:06:08;7.90;99.90
55560;DHT22;41414;53.250;6.514;2022-12-24T08:08:35;8.00;99.90
55560;DHT22;41414;53.250;6.514;2022-12-24T08:11:02;8.00;99.90
55560;DHT22;41414;53.250;6.514;2022-12-24T08:13:29;8.00;99.90
55560;DHT22;41414;53.250;6.514;2022-12-24T08:15:54;8.10;99.90
55560;DHT22;41414;53.250;6.514;2022-12-24T08:18:20;8.10;99.90
55560;DHT22;41414;53.250;6.514;2022-12-24T08:20:46;8.10;99.90
55560;DHT22;41414;53.250;6.514;2022-12-24T08:23:12;8.10;99.90
55560;DHT22;41414;53.250;6.514;2022-12-24T08:25:42;8.20;99.90
55560;DHT22;41414;53.250;6.514;2022-12-24T08:28:08;8.20;99.90
55560;DHT22;41414;53.250;6.514;2022-12-24T08:30:34;8.20;99.90
55560;DHT22;41414;53.250;6.514;2022-12-24T08:33:00;8.20;99.90
55560;DHT22;41414;53.250;6.514;2022-12-24T08:35:27;8.20;99.90
55560;DHT22;41414;53.250;6.514;2022-12-24T08:37:52;8.20;99.90
55560;DHT22;41414;53.250;6.514;2022-12-24T08:40:18;8.30;99.90
55560;DHT22;41414;53.250;6.514;2022-12-24T08:42:44;8.30;99.90
55560;DHT22;41414;53.250;6.514;2022-12-24T08:45:10;8.40;99.90
55560;DHT22;41414;53.250;6.514;2022-12-24T08:47:37;8.40;99.90
55560;DHT22;41414;53.250;6.514;2022-12-24T08:50:04;8.50;99.90
55560;DHT22;41414;53.250;6.514;2022-12-24T08:52:31;8.40;99.90
55560;DHT22;41414;53.250;6.514;2022-12-24T08:54:56;8.40;99.90
55560;DHT22;41414;53.250;6.514;2022-12-24T08:57:22;8.50;99.90
55560;DHT22;41414;53.250;6.514;2022-12-24T08:59:48;8.40;99.90
55560;DHT22;41414;53.250;6.514;2022-12-24T09:02:14;8.40;99.90
55560;DHT22;41414;53.250;6.514;2022-12-24T09:04:40;8.40;99.90
55560;DHT22;41414;53.250;6.514;2022-12-24T09:07:07;8.40;99.90
55560;DHT22;41414;53.250;6.514;2022-12-24T09:09:33;8.40;99.90
55560;DHT22;41414;53.250;6.514;2022-12-24T09:11:59;8.40;99.90
55560;DHT22;41414;53.250;6.514;2022-12-24T09:14:25;8.50;99.90
55560;DHT22;41414;53.250;6.514;2022-12-24T09:16:51;8.40;99.90
55560;DHT22;41414;53.250;6.514;2022-12-24T09:19:17;8.50;99.90
55560;DHT22;41414;53.250;6.514;2022-12-24T09:21:43;8.50;99.90
55560;DHT22;41414;53.250;6.514;2022-12-24T09:24:09;8.50;99.90
55560;DHT22;41414;53.250;6.514;2022-12-24T09:26:34;8.50;99.90
55560;DHT22;41414;53.250;6.514;2022-12-24T09:29:01;8.50;99.90
55560;DHT22;41414;53.250;6.514;2022-12-24T09:31:27;8.50;99.90
55560;DHT22;41414;53.250;6.514;2022-12-24T09:33:53;8.50;99.90
55560;DHT22;41414;53.250;6.514;2022-12-24T09:36:20;8.50;99.90
55560;DHT22;41414;53.250;6.514;2022-12-24T09:38:46;8.50;99.90
55560;DHT22;41414;53.250;6.514;2022-12-24T09:43:59;8.70;99.90
55560;DHT22;41414;53.250;6.514;2022-12-24T09:46:32;8.70;99.90
55560;DHT22;41414;53.250;6.514;2022-12-24T09:49:04;8.70;99.90
55560;DHT22;41414;53.250;6.514;2022-12-24T09:51:40;8.80;99.90
55560;DHT22;41414;53.250;6.514;2022-12-24T09:54:19;8.80;99.90
55560;DHT22;41414;53.250;6.514;2022-12-24T09:56:47;8.70;99.90
55560;DHT22;41414;53.250;6.514;2022-12-24T09:59:18;8.70;99.90
55560;DHT22;41414;53.250;6.514;2022-12-24T10:01:46;8.70;99.90
55560;DHT22;41414;53.250;6.514;2022-12-24T10:04:15;8.70;99.90
55560;DHT22;41414;53.250;6.514;2022-12-24T10:06:53;8.70;99.90
55560;DHT22;41414;53.250;6.514;2022-12-24T10:09:30;8.80;99.90
55560;DHT22;41414;53.250;6.514;2022-12-24T10:12:21;8.80;99.90
55560;DHT22;41414;53.250;6.514;2022-12-24T10:15:07;8.90;99.90
55560;DHT22;41414;53.250;6.514;2022-12-24T10:20:38;9.00;99.90
55560;DHT22;41414;53.250;6.514;2022-12-24T10:26:14;9.20;99.90
55560;DHT22;41414;53.250;6.514;2022-12-24T10:28:47;9.40;99.90
55560;DHT22;41414;53.250;6.514;2022-12-24T10:31:19;9.40;99.90
55560;DHT22;41414;53.250;6.514;2022-12-24T10:33:52;9.40;99.90
55560;DHT22;41414;53.250;6.514;2022-12-24T10:36:23;9.60;99.90
55560;DHT22;41414;53.250;6.514;2022-12-24T10:38:51;9.40;99.90
55560;DHT22;41414;53.250;6.514;2022-12-24T10:41:17;9.40;99.90
55560;DHT22;41414;53.250;6.514;2022-12-24T10:43:44;9.40;99.90
55560;DHT22;41414;53.250;6.514;2022-12-24T10:46:22;9.40;99.90
55560;DHT22;41414;53.250;6.514;2022-12-24T10:48:56;9.40;99.90
55560;DHT22;41414;53.250;6.514;2022-12-24T10:51:34;9.50;99.90
55560;DHT22;41414;53.250;6.514;2022-12-24T10:56:39;9.50;99.90
55560;DHT22;41414;53.250;6.514;2022-12-24T10:59:07;9.50;99.90
55560;DHT22;41414;53.250;6.514;2022-12-24T11:01:47;9.60;99.90
55560;DHT22;41414;53.250;6.514;2022-12-24T11:04:16;9.60;99.90
55560;DHT22;41414;53.250;6.514;2022-12-24T11:06:54;9.60;99.90
55560;DHT22;41414;53.250;6.514;2022-12-24T11:09:25;9.60;99.90
55560;DHT22;41414;53.250;6.514;2022-12-24T11:11:51;9.60;99.90
55560;DHT22;41414;53.250;6.514;2022-12-24T11:14:19;9.60;99.90
55560;DHT22;41414;53.250;6.514;2022-12-24T11:16:54;9.60;99.90
55560;DHT22;41414;53.250;6.514;2022-12-24T11:19:30;9.60;99.90
55560;DHT22;41414;53.250;6.514;2022-12-24T11:22:00;9.60;99.90
55560;DHT22;41414;53.250;6.514;2022-12-24T11:24:30;9.60;99.90
55560;DHT22;41414;53.250;6.514;2022-12-24T11:27:38;9.60;99.90
55560;DHT22;41414;53.250;6.514;2022-12-24T11:30:24;9.60;99.90
55560;DHT22;41414;53.250;6.514;2022-12-24T11:33:14;9.60;99.90
55560;DHT22;41414;53.250;6.514;2022-12-24T11:35:45;9.60;99.90
55560;DHT22;41414;53.250;6.514;2022-12-24T11:38:19;9.60;99.90
55560;DHT22;41414;53.250;6.514;2022-12-24T11:40:48;9.60;99.90
55560;DHT22;41414;53.250;6.514;2022-12-24T11:43:19;9.60;99.90
55560;DHT22;41414;53.250;6.514;2022-12-24T11:45:52;9.60;99.90
55560;DHT22;41414;53.250;6.514;2022-12-24T11:48:26;9.60;99.90
55560;DHT22;41414;53.250;6.514;2022-12-24T11:50:59;9.50;99.90
55560;DHT22;41414;53.250;6.514;2022-12-24T11:53:39;9.60;99.90
55560;DHT22;41414;53.250;6.514;2022-12-24T11:56:14;9.60;99.90
55560;DHT22;41414;53.250;6.514;2022-12-24T11:58:45;9.60;99.90
55560;DHT22;41414;53.250;6.514;2022-12-24T12:03:52;9.60;99.90
55560;DHT22;41414;53.250;6.514;2022-12-24T12:06:26;9.70;99.90
55560;DHT22;41414;53.250;6.514;2022-12-24T12:08:56;9.70;99.90
55560;DHT22;41414;53.250;6.514;2022-12-24T12:11:25;9.70;99.90
55560;DHT22;41414;53.250;6.514;2022-12-24T12:13:52;9.70;99.90
55560;DHT22;41414;53.250;6.514;2022-12-24T12:16:34;9.70;99.90
55560;DHT22;41414;53.250;6.514;2022-12-24T12:19:25;9.60;99.90
55560;DHT22;41414;53.250;6.514;2022-12-24T12:21:52;9.60;99.90
55560;DHT22;41414;53.250;6.514;2022-12-24T12:24:23;9.60;99.90
55560;DHT22;41414;53.250;6.514;2022-12-24T12:27:13;9.50;99.90
55560;DHT22;41414;53.250;6.514;2022-12-24T12:29:46;9.50;99.90
55560;DHT22;41414;53.250;6.514;2022-12-24T12:32:25;9.50;99.90
55560;DHT22;41414;53.250;6.514;2022-12-24T12:34:55;9.50;99.90
55560;DHT22;41414;53.250;6.514;2022-12-24T12:37:30;9.50;99.90
55560;DHT22;41414;53.250;6.514;2022-12-24T12:39:58;9.50;99.90
55560;DHT22;41414;53.250;6.514;2022-12-24T12:42:32;9.50;99.90
55560;DHT22;41414;53.250;6.514;2022-12-24T12:45:20;9.40;99.90
55560;DHT22;41414;53.250;6.514;2022-12-24T12:48:01;9.50;99.90
55560;DHT22;41414;53.250;6.514;2022-12-24T12:50:35;9.50;99.90
55560;DHT22;41414;53.250;6.514;2022-12-24T12:53:19;9.60;99.90
55560;DHT22;41414;53.250;6.514;2022-12-24T12:56:05;9.70;99.90
55560;DHT22;41414;53.250;6.514;2022-12-24T12:58:46;9.70;99.90
55560;DHT22;41414;53.250;6.514;2022-12-24T13:09:23;9.60;99.90
55560;DHT22;41414;53.250;6.514;2022-12-24T13:12:10;9.60;99.90
55560;DHT22;41414;53.250;6.514;2022-12-24T13:17:28;9.50;99.90
55560;DHT22;41414;53.250;6.514;2022-12-24T13:23:10;9.50;99.90
55560;DHT22;41414;53.250;6.514;2022-12-24T13:25:45;9.50;99.90
55560;DHT22;41414;53.250;6.514;2022-12-24T13:28:16;9.40;99.90
55560;DHT22;41414;53.250;6.514;2022-12-24T13:30:42;9.40;99.90
55560;DHT22;41414;53.250;6.514;2022-12-24T13:33:11;9.40;99.90
55560;DHT22;41414;53.250;6.514;2022-12-24T13:35:56;9.40;99.90
55560;DHT22;41414;53.250;6.514;2022-12-24T13:46:56;9.30;99.90
55560;DHT22;41414;53.250;6.514;2022-12-24T13:49:33;9.30;99.90
55560;DHT22;41414;53.250;6.514;2022-12-24T13:54:36;9.20;99.90
55560;DHT22;41414;53.250;6.514;2022-12-24T13:57:24;9.20;99.90
55560;DHT22;41414;53.250;6.514;2022-12-24T13:59:58;9.20;99.90
55560;DHT22;41414;53.250;6.514;2022-12-24T14:02:25;9.10;99.90
55560;DHT22;41414;53.250;6.514;2022-12-24T14:04:52;9.10;99.90
55560;DHT22;41414;53.250;6.514;2022-12-24T14:07:21;9.00;99.90
55560;DHT22;41414;53.250;6.514;2022-12-24T14:09:48;9.00;99.90
55560;DHT22;41414;53.250;6.514;2022-12-24T14:12:31;8.90;99.90
55560;DHT22;41414;53.250;6.514;2022-12-24T14:14:57;8.90;99.90
55560;DHT22;41414;53.250;6.514;2022-12-24T14:17:25;8.90;99.90
55560;DHT22;41414;53.250;6.514;2022-12-24T14:19:54;8.90;99.90
55560;DHT22;41414;53.250;6.514;2022-12-24T14:24:58;8.90;99.90
55560;DHT22;41414;53.250;6.514;2022-12-24T14:27:42;8.90;99.90
55560;DHT22;41414;53.250;6.514;2022-12-24T14:30:18;8.90;99.90
55560;DHT22;41414;53.250;6.514;2022-12-24T14:32:48;8.80;99.90
55560;DHT22;41414;53.250;6.514;2022-12-24T14:35:17;8.80;99.90
55560;DHT22;41414;53.250;6.514;2022-12-24T14:37:48;8.80;99.90
55560;DHT22;41414;53.250;6.514;2022-12-24T14:40:19;8.80;99.90
55560;DHT22;41414;53.250;6.514;2022-12-24T14:42:55;8.80;99.90
55560;DHT22;41414;53.250;6.514;2022-12-24T14:48:10;8.80;99.90
55560;DHT22;41414;53.250;6.514;2022-12-24T14:53:27;8.80;99.90
55560;DHT22;41414;53.250;6.514;2022-12-24T14:55:57;8.80;99.90
55560;DHT22;41414;53.250;6.514;2022-12-24T14:58:24;8.80;99.90
55560;DHT22;41414;53.250;6.514;2022-12-24T15:00:53;8.70;99.90
55560;DHT22;41414;53.250;6.514;2022-12-24T15:03:22;8.70;99.90
55560;DHT22;41414;53.250;6.514;2022-12-24T15:05:51;8.70;99.90
55560;DHT22;41414;53.250;6.514;2022-12-24T15:08:22;8.60;99.90
55560;DHT22;41414;53.250;6.514;2022-12-24T15:10:52;8.60;99.90
55560;DHT22;41414;53.250;6.514;2022-12-24T15:15:48;8.50;99.90
55560;DHT22;41414;53.250;6.514;2022-12-24T15:18:17;8.50;99.90
55560;DHT22;41414;53.250;6.514;2022-12-24T15:20:47;8.40;99.90
55560;DHT22;41414;53.250;6.514;2022-12-24T15:23:20;8.30;99.90
55560;DHT22;41414;53.250;6.514;2022-12-24T15:25:46;8.30;99.90
55560;DHT22;41414;53.250;6.514;2022-12-24T15:28:17;8.20;99.90
55560;DHT22;41414;53.250;6.514;2022-12-24T15:30:44;8.10;99.90
55560;DHT22;41414;53.250;6.514;2022-12-24T15:33:10;8.00;99.90
55560;DHT22;41414;53.250;6.514;2022-12-24T15:38:26;7.90;99.90
55560;DHT22;41414;53.250;6.514;2022-12-24T15:40:54;7.80;99.90
55560;DHT22;41414;53.250;6.514;2022-12-24T15:43:21;7.70;99.90
55560;DHT22;41414;53.250;6.514;2022-12-24T15:45:47;7.60;99.90
55560;DHT22;41414;53.250;6.514;2022-12-24T15:48:18;7.60;99.90
55560;DHT22;41414;53.250;6.514;2022-12-24T15:50:47;7.50;99.90
55560;DHT22;41414;53.250;6.514;2022-12-24T15:53:21;7.40;99.90
55560;DHT22;41414;53.250;6.514;2022-12-24T15:56:04;7.30;99.90
55560;DHT22;41414;53.250;6.514;2022-12-24T15:58:33;7.30;99.90
55560;DHT22;41414;53.250;6.514;2022-12-24T16:01:24;7.20;99.90
55560;DHT22;41414;53.250;6.514;2022-12-24T16:06:19;7.10;99.90
55560;DHT22;41414;53.250;6.514;2022-12-24T16:08:45;7.10;99.90
55560;DHT22;41414;53.250;6.514;2022-12-24T16:11:20;7.00;99.90
55560;DHT22;41414;53.250;6.514;2022-12-24T16:13:58;7.00;99.90
55560;DHT22;41414;53.250;6.514;2022-12-24T16:16:33;7.00;99.90
55560;DHT22;41414;53.250;6.514;2022-12-24T16:19:00;6.90;99.90
55560;DHT22;41414;53.250;6.514;2022-12-24T16:23:56;6.80;99.90
55560;DHT22;41414;53.250;6.514;2022-12-24T16:26:23;6.80;99.90
55560;DHT22;41414;53.250;6.514;2022-12-24T16:28:49;6.80;99.90
55560;DHT22;41414;53.250;6.514;2022-12-24T16:31:27;6.80;99.90
55560;DHT22;41414;53.250;6.514;2022-12-24T16:33:54;6.80;99.90
55560;DHT22;41414;53.250;6.514;2022-12-24T16:36:22;6.80;99.90
55560;DHT22;41414;53.250;6.514;2022-12-24T16:38:48;6.80;99.90
55560;DHT22;41414;53.250;6.514;2022-12-24T16:41:32;6.70;99.90
55560;DHT22;41414;53.250;6.514;2022-12-24T16:44:18;6.60;99.90
55560;DHT22;41414;53.250;6.514;2022-12-24T16:46:44;6.60;99.90
55560;DHT22;41414;53.250;6.514;2022-12-24T16:49:15;6.50;99.90
55560;DHT22;41414;53.250;6.514;2022-12-24T16:51:42;6.50;99.90
55560;DHT22;41414;53.250;6.514;2022-12-24T16:54:11;6.40;99.90
55560;DHT22;41414;53.250;6.514;2022-12-24T16:56:40;6.30;99.90
55560;DHT22;41414;53.250;6.514;2022-12-24T16:59:10;6.30;99.90
55560;DHT22;41414;53.250;6.514;2022-12-24T17:01:38;6.20;99.90
55560;DHT22;41414;53.250;6.514;2022-12-24T17:04:04;6.10;99.90
55560;DHT22;41414;53.250;6.514;2022-12-24T17:06:30;6.10;99.90
55560;DHT22;41414;53.250;6.514;2022-12-24T17:08:56;6.10;99.90